Time;durP1;ratioP1;P1;durP2;ratioP2;P2;SDS_P1;SDS_P2;PMS_P1;PMS_P2;Temp;Humidity;BMP_temperature;BMP_pressure;BME280_temperature;BME280_humidity;BME280_pressure;Samples;Min_cycle;Max_cycle;Signal;HPM_P1;HPM_P2
2021/10/01 00:00:08;;;;;;;4.07;1.40;;;13.40;99.90;;;;;;5126921;28;20536;-64
2021/10/01 00:02:34;;;;;;;5.93;1.60;;;13.50;99.90;;;;;;5127146;28;20250;-64
2021/10/01 00:05:00;;;;;;;6.35;1.52;;;13.50;99.90;;;;;;5126568;28;20162;-64
2021/10/01 00:07:27;;;;;;;6.15;1.42;;;13.50;99.90;;;;;;5127151;28;20190;-63
2021/10/01 00:09:53;;;;;;;5.55;1.63;;;13.40;99.90;;;;;;5126674;28;20159;-64
2021/10/01 00:12:18;;;;;;;5.47;1.98;;;13.40;99.90;;;;;;5127097;28;20162;-64
2021/10/01 00:14:44;;;;;;;5.05;1.65;;;13.50;99.90;;;;;;5126618;28;20167;-64
2021/10/01 00:17:10;;;;;;;8.77;1.60;;;13.50;99.90;;;;;;5126853;28;20159;-64
2021/10/01 00:19:36;;;;;;;5.38;1.75;;;13.40;99.90;;;;;;5126404;28;20193;-64
2021/10/01 00:22:03;;;;;;;4.10;1.35;;;13.60;99.90;;;;;;5126937;28;20177;-64
2021/10/01 00:24:30;;;;;;;11.13;1.85;;;13.60;99.90;;;;;;5126513;28;20237;-63
2021/10/01 00:26:56;;;;;;;2.67;1.30;;;13.70;99.90;;;;;;5126640;28;20167;-64
2021/10/01 00:29:23;;;;;;;5.95;1.45;;;13.80;99.90;;;;;;5126648;28;20499;-64
2021/10/01 00:31:49;;;;;;;7.50;1.98;;;13.70;99.90;;;;;;5126696;28;20182;-64
2021/10/01 00:34:14;;;;;;;8.98;1.73;;;13.60;99.90;;;;;;5126291;28;20158;-64
2021/10/01 00:36:40;;;;;;;4.57;1.50;;;13.60;99.90;;;;;;5126749;28;20635;-64
2021/10/01 00:39:07;;;;;;;5.93;1.60;;;13.50;99.90;;;;;;5126491;28;20155;-64
2021/10/01 00:41:33;;;;;;;5.03;1.75;;;13.70;99.90;;;;;;5126457;28;20162;-64
2021/10/01 00:43:59;;;;;;;9.77;1.95;;;13.80;99.90;;;;;;5126580;28;20590;-64
2021/10/01 00:46:25;;;;;;;5.63;2.15;;;13.70;99.90;;;;;;5126466;28;20171;-64
2021/10/01 00:48:51;;;;;;;6.43;1.80;;;13.70;99.90;;;;;;5126355;28;20194;-64
2021/10/01 00:51:17;;;;;;;3.75;1.80;;;13.60;99.90;;;;;;5126660;28;20175;-64
2021/10/01 00:53:44;;;;;;;3.33;1.70;;;13.60;99.90;;;;;;5126537;28;20155;-64
2021/10/01 00:56:11;;;;;;;7.97;1.92;;;13.50;99.90;;;;;;5126189;28;20167;-64
2021/10/01 00:58:36;;;;;;;4.75;1.75;;;13.40;99.90;;;;;;5126653;28;20163;-64
2021/10/01 01:01:11;;;;;;;4.32;1.73;;;13.40;99.90;;;;;;5126299;28;20166;-63
2021/10/01 01:03:39;;;;;;;6.65;2.42;;;13.40;99.90;;;;;;5126293;28;20176;-63
2021/10/01 01:06:31;;;;;;;4.00;2.38;;;13.50;99.90;;;;;;5126151;28;20227;-64
2021/10/01 01:09:22;;;;;;;5.57;2.55;;;13.40;99.90;;;;;;5127661;28;20216;-64
2021/10/01 01:12:06;;;;;;;4.88;2.33;;;13.50;99.90;;;;;;5112443;28;20214;-64
2021/10/01 01:14:43;;;;;;;8.35;2.97;;;13.30;99.90;;;;;;5130087;28;20161;-63
2021/10/01 01:20:42;;;;;;;8.65;2.90;;;13.50;99.90;;;;;;5127871;28;20174;-63
2021/10/01 01:23:41;;;;;;;8.75;3.17;;;13.40;99.90;;;;;;5130249;28;20192;-64
2021/10/01 01:26:44;;;;;;;8.20;2.90;;;13.50;99.90;;;;;;5129885;28;20226;-63
2021/10/01 01:29:24;;;;;;;10.23;3.72;;;13.50;99.90;;;;;;5126542;28;20208;-64
2021/10/01 01:31:56;;;;;;;5.32;3.47;;;13.50;99.90;;;;;;5130046;28;20149;-64
2021/10/01 01:34:31;;;;;;;7.22;3.33;;;13.50;99.90;;;;;;5110899;28;20197;-64
2021/10/01 01:37:01;;;;;;;8.88;3.22;;;13.50;99.90;;;;;;5130052;28;20153;-64
2021/10/01 01:39:28;;;;;;;5.55;3.28;;;13.50;99.90;;;;;;5129772;28;20620;-64
2021/10/01 01:41:55;;;;;;;13.95;3.53;;;13.60;99.90;;;;;;5129910;28;20163;-64
2021/10/01 01:44:23;;;;;;;5.13;3.05;;;13.50;99.90;;;;;;5129387;28;20177;-63
2021/10/01 01:46:49;;;;;;;5.53;3.40;;;13.40;99.90;;;;;;5129544;28;20159;-64
2021/10/01 01:49:17;;;;;;;6.10;2.80;;;13.50;99.90;;;;;;5129270;28;20234;-64
2021/10/01 01:51:44;;;;;;;7.80;2.97;;;13.50;99.90;;;;;;5129606;28;20179;-64
2021/10/01 01:54:11;;;;;;;7.65;3.13;;;13.30;99.90;;;;;;5129443;28;20161;-64
2021/10/01 01:56:40;;;;;;;8.85;3.47;;;13.30;99.90;;;;;;5129258;28;20212;-64
2021/10/01 01:59:07;;;;;;;4.72;3.03;;;13.40;99.90;;;;;;5129309;28;20276;-64
2021/10/01 02:01:34;;;;;;;6.63;2.90;;;13.40;99.90;;;;;;5129293;28;20215;-64
2021/10/01 02:04:00;;;;;;;5.03;2.90;;;13.20;99.90;;;;;;5128710;28;20786;-64
2021/10/01 02:06:27;;;;;;;5.38;2.40;;;13.20;99.90;;;;;;5129251;28;20178;-64
2021/10/01 02:08:55;;;;;;;11.07;2.65;;;13.00;99.90;;;;;;5110952;28;20193;-63
2021/10/01 02:11:21;;;;;;;6.10;2.35;;;13.10;99.90;;;;;;5128909;28;20644;-64
2021/10/01 02:13:49;;;;;;;5.75;2.30;;;13.10;99.90;;;;;;5129041;28;20678;-64
2021/10/01 02:16:15;;;;;;;9.07;2.70;;;13.10;99.90;;;;;;5128920;28;20171;-64
2021/10/01 02:18:46;;;;;;;5.75;2.20;;;13.10;99.90;;;;;;5128976;28;20178;-64
2021/10/01 02:21:14;;;;;;;6.25;2.28;;;13.00;99.90;;;;;;5109948;28;20175;-64
2021/10/01 02:23:39;;;;;;;9.23;2.50;;;12.90;99.90;;;;;;5128917;28;20159;-64
2021/10/01 02:28:59;;;;;;;5.50;2.63;;;13.00;99.90;;;;;;5129040;28;20201;-63
2021/10/01 02:31:33;;;;;;;14.10;2.45;;;13.10;99.90;;;;;;5128729;28;20159;-63
2021/10/01 02:34:02;;;;;;;2.90;1.95;;;13.20;99.90;;;;;;5128641;28;20152;-64
2021/10/01 02:36:29;;;;;;;6.50;2.10;;;13.20;99.90;;;;;;5128433;28;20169;-64
2021/10/01 02:38:55;;;;;;;3.85;1.80;;;13.10;99.90;;;;;;5128840;28;20185;-64
2021/10/01 02:41:20;;;;;;;8.30;2.20;;;13.20;99.90;;;;;;5128443;28;20719;-64
2021/10/01 02:43:46;;;;;;;5.45;1.98;;;13.10;99.90;;;;;;5110126;28;20163;-64
2021/10/01 02:46:12;;;;;;;8.40;2.00;;;13.10;99.90;;;;;;5128302;28;20170;-64
2021/10/01 02:48:39;;;;;;;3.83;1.90;;;13.00;99.90;;;;;;5128351;28;20187;-64
2021/10/01 02:51:12;;;;;;;5.85;2.38;;;13.00;99.90;;;;;;5128492;28;20246;-64
2021/10/01 02:53:50;;;;;;;7.47;2.25;;;13.00;99.90;;;;;;5128133;28;20616;-64
2021/10/01 02:56:23;;;;;;;6.32;2.50;;;12.90;99.90;;;;;;5127888;28;20174;-63
2021/10/01 02:58:57;;;;;;;4.07;2.15;;;12.90;99.90;;;;;;5128224;28;20166;-64
2021/10/01 03:01:26;;;;;;;7.40;1.80;;;12.90;99.90;;;;;;5128232;28;20178;-64
2021/10/01 03:03:55;;;;;;;5.93;2.00;;;12.80;99.90;;;;;;5109524;28;20640;-64
2021/10/01 03:06:23;;;;;;;3.38;1.80;;;12.90;99.90;;;;;;5127969;28;20193;-64
2021/10/01 03:08:52;;;;;;;8.88;2.00;;;12.70;99.90;;;;;;5128014;28;20190;-64
2021/10/01 03:11:19;;;;;;;6.90;2.10;;;12.70;99.90;;;;;;5127820;28;20231;-64
2021/10/01 03:13:48;;;;;;;5.38;2.05;;;12.60;99.90;;;;;;5127887;28;20168;-64
2021/10/01 03:16:16;;;;;;;5.55;1.90;;;12.60;99.90;;;;;;5127610;28;20176;-63
2021/10/01 03:18:43;;;;;;;4.63;1.55;;;12.70;99.90;;;;;;5109591;28;20162;-64
2021/10/01 03:21:09;;;;;;;7.32;1.98;;;12.80;99.90;;;;;;5127667;28;20173;-64
2021/10/01 03:23:35;;;;;;;4.78;1.88;;;12.60;99.90;;;;;;5128124;28;20158;-64
2021/10/01 03:26:01;;;;;;;4.43;2.05;;;12.60;99.90;;;;;;5127258;28;20194;-64
2021/10/01 03:28:27;;;;;;;4.57;2.10;;;12.60;99.90;;;;;;5127717;28;20651;-63
2021/10/01 03:30:53;;;;;;;4.07;1.83;;;12.60;99.90;;;;;;5127727;28;20170;-64
2021/10/01 03:33:27;;;;;;;5.77;1.90;;;12.80;99.90;;;;;;5127563;28;20158;-63
2021/10/01 03:35:54;;;;;;;5.22;1.50;;;12.80;99.90;;;;;;5127225;28;20166;-63
2021/10/01 03:38:20;;;;;;;5.55;1.92;;;12.70;99.90;;;;;;5127638;28;20159;-64
2021/10/01 03:40:46;;;;;;;4.47;1.50;;;12.60;99.90;;;;;;5127752;28;20163;-64
2021/10/01 03:43:14;;;;;;;6.80;1.65;;;12.60;99.90;;;;;;5127391;28;20166;-64
2021/10/01 03:45:40;;;;;;;2.75;1.50;;;12.60;99.90;;;;;;5126997;28;20262;-64
2021/10/01 03:48:06;;;;;;;3.70;1.63;;;12.50;99.90;;;;;;5108970;28;20313;-64
2021/10/01 03:50:34;;;;;;;4.13;2.10;;;12.40;99.90;;;;;;5126973;28;20163;-64
2021/10/01 03:53:00;;;;;;;4.40;1.80;;;12.40;99.90;;;;;;5127375;28;20159;-64
2021/10/01 03:55:26;;;;;;;7.00;1.80;;;12.40;99.90;;;;;;5126795;28;20173;-63
2021/10/01 03:57:52;;;;;;;5.78;2.15;;;12.30;99.90;;;;;;5127173;28;20173;-64
2021/10/01 04:00:20;;;;;;;5.90;1.98;;;12.30;99.90;;;;;;5126843;28;20697;-64
2021/10/01 04:02:45;;;;;;;6.60;1.65;;;12.30;99.90;;;;;;5126703;28;20162;-63
2021/10/01 04:05:12;;;;;;;4.85;1.80;;;12.40;99.90;;;;;;5126360;28;20238;-63
2021/10/01 04:07:38;;;;;;;7.63;1.80;;;12.30;99.90;;;;;;5126865;28;20221;-64
2021/10/01 04:10:05;;;;;;;8.27;1.90;;;12.40;99.90;;;;;;5126644;28;20159;-63
2021/10/01 04:12:31;;;;;;;4.63;1.50;;;12.40;99.90;;;;;;5127012;28;20177;-64
2021/10/01 04:14:57;;;;;;;3.28;1.50;;;12.30;99.90;;;;;;5108223;28;20534;-64
2021/10/01 04:17:23;;;;;;;6.18;1.60;;;12.30;99.90;;;;;;5126878;28;20173;-64
2021/10/01 04:19:49;;;;;;;3.65;1.80;;;12.30;99.90;;;;;;5126703;28;20167;-64
2021/10/01 04:22:16;;;;;;;5.07;1.65;;;12.30;99.90;;;;;;5126913;28;20154;-64
2021/10/01 04:24:41;;;;;;;4.57;1.77;;;12.40;99.90;;;;;;5126083;28;20163;-64
2021/10/01 04:27:08;;;;;;;11.60;2.50;;;12.40;99.90;;;;;;5126406;28;20608;-64
2021/10/01 04:29:33;;;;;;;8.13;2.50;;;12.30;99.90;;;;;;5108138;28;20230;-64
2021/10/01 04:32:01;;;;;;;5.00;2.42;;;12.30;99.90;;;;;;5126766;28;20167;-63
2021/10/01 04:34:29;;;;;;;5.90;2.15;;;12.20;99.90;;;;;;5107891;28;20170;-63
2021/10/01 04:36:55;;;;;;;9.80;2.63;;;12.30;99.90;;;;;;5126398;28;20181;-64
2021/10/01 04:39:21;;;;;;;7.25;2.45;;;12.40;99.90;;;;;;5126544;28;20171;-63
2021/10/01 04:41:46;;;;;;;6.93;2.70;;;12.40;99.90;;;;;;5126379;28;20244;-63
2021/10/01 04:44:12;;;;;;;5.65;2.33;;;12.40;99.90;;;;;;5127907;28;20241;-64
2021/10/01 04:46:37;;;;;;;6.47;2.30;;;12.50;99.90;;;;;;5130467;28;20181;-64
2021/10/01 04:49:03;;;;;;;3.75;2.17;;;12.50;99.90;;;;;;5130015;28;20190;-64
2021/10/01 04:51:29;;;;;;;10.10;2.17;;;12.50;99.90;;;;;;5130700;28;20151;-65
2021/10/01 04:53:55;;;;;;;5.60;2.47;;;12.50;99.90;;;;;;5130476;28;20181;-64
2021/10/01 04:56:21;;;;;;;6.88;2.38;;;12.50;99.90;;;;;;5129796;28;20174;-64
2021/10/01 04:58:47;;;;;;;4.18;2.13;;;12.50;99.90;;;;;;5130317;28;20170;-64
2021/10/01 05:01:13;;;;;;;7.93;2.65;;;12.50;99.90;;;;;;5129911;28;20167;-64
2021/10/01 05:03:38;;;;;;;5.72;2.10;;;12.60;99.90;;;;;;5130138;28;20253;-64
2021/10/01 05:06:04;;;;;;;3.08;2.03;;;12.60;99.90;;;;;;5129672;28;20175;-64
2021/10/01 05:08:29;;;;;;;10.10;2.40;;;12.70;99.90;;;;;;5130071;28;20191;-64
2021/10/01 05:10:56;;;;;;;5.25;2.15;;;12.70;99.90;;;;;;5129504;28;20238;-64
2021/10/01 05:13:21;;;;;;;4.72;2.20;;;12.70;99.90;;;;;;5129410;28;20163;-64
2021/10/01 05:15:48;;;;;;;9.75;2.08;;;12.70;99.90;;;;;;5129405;28;20182;-64
2021/10/01 05:18:15;;;;;;;4.40;2.22;;;12.70;99.90;;;;;;5129892;28;20162;-64
2021/10/01 05:20:41;;;;;;;4.25;2.05;;;12.80;99.90;;;;;;5129393;28;20194;-64
2021/10/01 05:23:07;;;;;;;8.02;2.38;;;12.70;99.90;;;;;;5129853;28;20526;-65
2021/10/01 05:25:33;;;;;;;3.65;2.40;;;12.70;99.90;;;;;;5128980;28;20170;-64
2021/10/01 05:27:59;;;;;;;5.53;2.10;;;12.70;99.90;;;;;;5129502;28;20224;-64
2021/10/01 05:30:24;;;;;;;7.13;2.50;;;12.70;99.90;;;;;;5129328;28;20155;-64
2021/10/01 05:32:50;;;;;;;7.03;2.50;;;12.70;99.90;;;;;;5129397;28;20155;-64
2021/10/01 05:35:16;;;;;;;5.43;2.08;;;12.70;99.90;;;;;;5128811;28;20167;-64
2021/10/01 05:37:41;;;;;;;16.77;2.57;;;12.70;99.90;;;;;;5129532;28;20162;-64
2021/10/01 05:40:08;;;;;;;5.63;2.40;;;12.60;99.90;;;;;;5129047;28;20166;-64
2021/10/01 05:42:33;;;;;;;5.95;2.40;;;12.50;99.90;;;;;;5111383;28;20174;-64
2021/10/01 05:44:59;;;;;;;8.40;2.03;;;12.60;99.90;;;;;;5129000;28;20159;-64
2021/10/01 05:47:27;;;;;;;7.97;2.38;;;12.70;99.90;;;;;;5129367;28;20189;-64
2021/10/01 05:49:53;;;;;;;7.07;2.33;;;12.70;99.90;;;;;;5128833;28;20163;-65
2021/10/01 05:54:45;;;;;;;8.43;2.83;;;12.70;99.90;;;;;;5128208;28;20163;-64
2021/10/01 05:57:12;;;;;;;7.57;2.90;;;12.70;99.90;;;;;;5128514;28;20170;-64
2021/10/01 05:59:39;;;;;;;15.30;2.60;;;12.80;99.90;;;;;;5110788;28;20169;-64
2021/10/01 06:02:08;;;;;;;6.97;3.20;;;12.80;99.90;;;;;;5128873;28;20163;-64
2021/10/01 06:04:33;;;;;;;4.20;2.55;;;12.80;99.90;;;;;;5128067;28;20167;-65
2021/10/01 06:06:59;;;;;;;6.55;2.95;;;12.80;99.90;;;;;;5127407;28;20177;-65
2021/10/01 06:09:25;;;;;;;9.07;3.20;;;12.90;99.90;;;;;;5128534;28;20239;-64
2021/10/01 06:11:50;;;;;;;9.35;3.08;;;12.90;99.90;;;;;;5128256;28;20218;-63
2021/10/01 06:14:21;;;;;;;9.87;3.37;;;12.90;99.90;;;;;;5127589;28;20407;-65
2021/10/01 06:16:48;;;;;;;8.95;2.65;;;12.90;99.90;;;;;;5128298;28;20167;-65
2021/10/01 06:19:13;;;;;;;16.70;3.00;;;13.00;99.90;;;;;;5127923;28;20194;-65
2021/10/01 06:21:39;;;;;;;10.15;3.45;;;13.00;99.90;;;;;;5128290;28;20225;-65
2021/10/01 06:24:05;;;;;;;10.23;3.40;;;13.00;99.90;;;;;;5127766;28;20418;-66
2021/10/01 06:26:30;;;;;;;8.23;3.22;;;13.00;99.90;;;;;;5128034;28;20199;-65
2021/10/01 06:28:56;;;;;;;15.88;3.92;;;13.00;99.90;;;;;;5128251;28;20197;-65
2021/10/01 06:31:21;;;;;;;6.55;3.20;;;13.00;99.90;;;;;;5128095;28;20163;-65
2021/10/01 06:33:48;;;;;;;8.60;3.03;;;13.00;99.90;;;;;;5128201;28;20170;-67
2021/10/01 06:36:16;;;;;;;12.45;3.90;;;13.00;99.90;;;;;;5127576;28;20159;-67
2021/10/01 06:38:43;;;;;;;8.93;3.63;;;13.10;99.90;;;;;;5128047;28;20177;-65
2021/10/01 06:41:08;;;;;;;7.75;3.35;;;13.00;99.90;;;;;;5127869;28;20169;-65
2021/10/01 06:43:34;;;;;;;6.68;2.88;;;13.10;99.90;;;;;;5127896;28;20166;-65
2021/10/01 06:46:02;;;;;;;9.48;3.70;;;13.20;99.90;;;;;;5127244;28;20193;-65
2021/10/01 08:19:18;;;;;;;7.97;3.50;;;14.80;99.90;;;;;;5125663;28;20208;-66
2021/10/01 08:21:45;;;;;;;11.77;3.38;;;14.80;99.90;;;;;;5126045;28;20185;-65
2021/10/01 08:24:12;;;;;;;13.05;3.08;;;14.80;99.90;;;;;;5126144;28;20174;-66
2021/10/01 08:26:38;;;;;;;7.28;2.88;;;14.90;99.90;;;;;;5126016;28;20178;-65
2021/10/01 08:29:04;;;;;;;14.38;2.75;;;14.90;99.90;;;;;;5107800;28;20198;-65
2021/10/01 08:31:30;;;;;;;12.40;3.00;;;14.90;99.90;;;;;;5107843;28;20198;-66
2021/10/01 08:33:57;;;;;;;12.45;3.30;;;15.00;99.90;;;;;;5107649;28;20202;-65
2021/10/01 08:36:23;;;;;;;6.05;2.90;;;15.00;99.90;;;;;;5125748;28;20170;-66
2021/10/01 08:38:51;;;;;;;6.32;2.45;;;15.20;99.90;;;;;;5125961;28;20277;-65
2021/10/01 08:41:16;;;;;;;9.90;2.20;;;15.20;99.90;;;;;;5126001;28;20178;-65
2021/10/01 08:43:44;;;;;;;7.93;2.85;;;15.10;99.90;;;;;;5126050;28;20249;-65
2021/10/01 08:46:10;;;;;;;10.88;3.05;;;15.10;99.90;;;;;;5125917;28;20166;-65
2021/10/01 08:48:37;;;;;;;7.28;2.83;;;15.10;99.90;;;;;;5125377;28;20194;-65
2021/10/01 08:51:05;;;;;;;10.52;3.17;;;15.20;99.90;;;;;;5107335;28;20170;-65
2021/10/01 08:53:32;;;;;;;10.98;3.28;;;15.20;99.90;;;;;;5125476;28;20204;-65
2021/10/01 08:55:58;;;;;;;7.00;3.03;;;15.30;99.90;;;;;;5125588;28;20166;-65
2021/10/01 08:58:26;;;;;;;10.90;3.78;;;15.30;99.90;;;;;;5125976;28;20269;-65
2021/10/01 09:00:53;;;;;;;8.27;2.90;;;15.30;99.90;;;;;;5125526;28;20223;-65
2021/10/01 09:03:18;;;;;;;4.72;2.50;;;15.40;99.90;;;;;;5125948;28;20167;-65
2021/10/01 09:05:44;;;;;;;9.32;3.20;;;15.40;99.90;;;;;;5124971;28;20293;-65
2021/10/01 09:08:22;;;;;;;10.50;2.95;;;15.30;99.90;;;;;;5125633;28;20283;-65
2021/10/01 09:11:07;;;;;;;5.97;2.80;;;15.40;99.90;;;;;;5125237;28;20213;-65
2021/10/01 09:13:34;;;;;;;9.23;2.67;;;15.50;99.90;;;;;;5125893;28;20165;-65
2021/10/01 09:16:06;;;;;;;7.53;2.70;;;15.60;99.90;;;;;;5125357;28;20169;-65
2021/10/01 09:18:35;;;;;;;9.45;3.80;;;15.60;99.90;;;;;;5125811;28;20234;-66
2021/10/01 09:21:14;;;;;;;8.65;2.60;;;15.90;99.90;;;;;;5125430;28;20182;-65
2021/10/01 09:23:43;;;;;;;8.57;2.67;;;15.80;99.90;;;;;;5125338;28;20166;-65
2021/10/01 09:26:13;;;;;;;11.43;3.20;;;15.70;99.90;;;;;;5106951;28;20177;-65
2021/10/01 09:29:02;;;;;;;8.82;2.92;;;15.70;99.90;;;;;;5125394;28;20201;-65
2021/10/01 09:31:43;;;;;;;5.25;2.20;;;15.70;99.90;;;;;;5129201;28;20226;-65
2021/10/01 09:34:15;;;;;;;6.28;2.25;;;15.80;99.90;;;;;;5129125;28;20171;-66
2021/10/01 09:36:42;;;;;;;6.47;2.47;;;15.90;99.90;;;;;;5128909;28;20170;-65
2021/10/01 09:39:23;;;;;;;6.80;2.05;;;16.10;99.90;;;;;;5129319;28;20258;-65
2021/10/01 09:41:48;;;;;;;4.07;2.20;;;16.10;99.90;;;;;;5129099;28;20200;-65
2021/10/01 09:44:15;;;;;;;6.32;1.95;;;16.20;99.90;;;;;;5129262;28;20175;-65
2021/10/01 09:46:45;;;;;;;4.32;1.65;;;16.30;99.90;;;;;;5128990;28;20178;-65
2021/10/01 09:49:14;;;;;;;4.90;1.30;;;16.30;99.90;;;;;;5128928;28;20205;-65
2021/10/01 09:51:48;;;;;;;5.28;1.58;;;16.30;99.90;;;;;;5128535;28;20166;-66
2021/10/01 09:54:15;;;;;;;6.32;1.73;;;16.30;99.90;;;;;;5128921;28;20177;-66
2021/10/01 09:56:41;;;;;;;6.90;1.40;;;16.40;99.90;;;;;;5128784;28;20220;-65
2021/10/01 09:59:14;;;;;;;9.65;1.40;;;16.50;99.90;;;;;;5128800;28;20182;-65
2021/10/01 10:02:15;;;;;;;8.13;1.60;;;16.70;99.90;;;;;;5128778;28;20532;-65
2021/10/01 10:04:45;;;;;;;4.00;1.55;;;16.90;99.90;;;;;;5128569;28;20206;-65
2021/10/01 10:07:12;;;;;;;5.10;1.25;;;16.90;99.90;;;;;;5128554;28;20171;-65
2021/10/01 10:09:40;;;;;;;6.35;1.60;;;16.80;99.90;;;;;;5128507;28;20174;-65
2021/10/01 10:12:09;;;;;;;5.35;1.63;;;16.90;99.90;;;;;;5128490;28;20279;-66
2021/10/01 10:14:40;;;;;;;4.47;1.65;;;17.00;99.90;;;;;;5128554;28;20260;-67
2021/10/01 10:17:23;;;;;;;7.45;1.38;;;17.00;99.90;;;;;;5128451;28;20189;-65
2021/10/01 10:19:52;;;;;;;4.75;1.40;;;17.10;99.90;;;;;;5128265;28;20170;-66
2021/10/01 10:22:19;;;;;;;4.80;1.60;;;17.20;99.90;;;;;;5128433;28;20165;-65
2021/10/01 10:24:45;;;;;;;3.72;1.10;;;17.40;99.90;;;;;;5128093;28;20166;-65
2021/10/01 10:27:11;;;;;;;3.97;1.23;;;17.10;99.90;;;;;;5128227;28;20177;-65
2021/10/01 10:29:39;;;;;;;6.85;1.40;;;17.00;99.90;;;;;;5128037;28;20162;-66
2021/10/01 10:32:08;;;;;;;6.95;1.33;;;16.90;99.90;;;;;;5128288;28;20158;-65
2021/10/01 10:34:35;;;;;;;6.82;1.45;;;16.80;99.90;;;;;;5127845;28;20184;-64
2021/10/01 10:37:05;;;;;;;6.68;1.40;;;17.00;99.90;;;;;;5128091;28;20167;-65
2021/10/01 10:39:37;;;;;;;12.20;1.83;;;17.00;99.90;;;;;;5127850;28;20166;-65
2021/10/01 10:42:02;;;;;;;7.88;1.50;;;17.20;99.90;;;;;;5127202;28;20177;-64
2021/10/01 10:44:40;;;;;;;6.10;1.48;;;17.30;99.90;;;;;;5127758;28;20163;-65
2021/10/01 10:47:06;;;;;;;6.30;1.42;;;17.30;99.90;;;;;;5127673;28;20227;-65
2021/10/01 10:49:31;;;;;;;5.82;1.13;;;17.10;99.90;;;;;;5127350;28;20261;-65
2021/10/01 10:52:08;;;;;;;4.45;0.93;;;17.20;99.90;;;;;;5127583;28;20159;-65
2021/10/01 10:54:37;;;;;;;20.35;2.85;;;17.20;99.90;;;;;;5108924;28;20185;-65
2021/10/01 10:59:46;;;;;;;5.53;1.30;;;17.30;99.90;;;;;;5127668;28;20204;-65
2021/10/01 11:02:19;;;;;;;11.45;1.30;;;17.20;99.90;;;;;;5127500;28;20195;-65
2021/10/01 11:05:11;;;;;;;6.15;1.90;;;17.30;99.90;;;;;;5108670;28;20175;-65
2021/10/01 11:07:49;;;;;;;6.60;1.30;;;17.30;99.90;;;;;;5127208;28;20190;-65
2021/10/01 11:10:40;;;;;;;7.10;1.27;;;17.20;99.90;;;;;;5127189;28;20674;-65
2021/10/01 11:13:23;;;;;;;4.18;1.20;;;17.20;99.90;;;;;;5127507;28;20178;-65
2021/10/01 11:16:07;;;;;;;13.10;1.48;;;17.20;99.90;;;;;;5127220;28;20162;-65
2021/10/01 11:19:00;;;;;;;4.28;1.35;;;17.30;99.90;;;;;;5127339;28;20221;-65
2021/10/01 11:21:26;;;;;;;13.82;1.40;;;17.40;99.90;;;;;;5126816;28;20177;-65
2021/10/01 11:24:11;;;;;;;7.22;1.40;;;17.30;99.90;;;;;;5127017;28;20170;-65
2021/10/01 11:26:49;;;;;;;4.50;1.02;;;17.40;99.90;;;;;;5127140;28;20163;-65
2021/10/01 11:29:23;;;;;;;6.85;1.20;;;17.50;99.90;;;;;;5127003;28;20251;-65
2021/10/01 11:32:01;;;;;;;7.18;1.40;;;17.50;99.90;;;;;;5126812;28;20545;-65
2021/10/01 11:34:44;;;;;;;8.23;1.35;;;17.60;99.90;;;;;;5126683;28;20181;-65
2021/10/01 11:37:26;;;;;;;3.53;1.30;;;17.60;99.90;;;;;;5126946;28;20173;-65
2021/10/01 11:39:57;;;;;;;7.82;1.40;;;17.70;99.90;;;;;;5127188;28;20516;-65
2021/10/01 11:42:34;;;;;;;8.10;1.60;;;17.80;99.90;;;;;;5126667;28;20154;-65
2021/10/01 11:45:13;;;;;;;7.07;1.23;;;17.80;99.90;;;;;;5127169;28;20171;-64
2021/10/01 11:47:48;;;;;;;4.63;1.02;;;17.60;99.90;;;;;;5126946;28;20186;-63
2021/10/01 11:50:14;;;;;;;4.07;1.35;;;17.40;99.90;;;;;;5126438;28;20166;-64
2021/10/01 11:52:45;;;;;;;5.25;1.30;;;17.50;99.90;;;;;;5126697;28;20155;-65
2021/10/01 11:55:13;;;;;;;8.93;1.65;;;17.60;99.90;;;;;;5126574;28;20158;-65
2021/10/01 11:57:41;;;;;;;6.28;1.30;;;17.50;99.90;;;;;;5126792;28;20165;-65
2021/10/01 12:00:13;;;;;;;7.93;1.23;;;17.50;99.90;;;;;;5126920;28;20192;-64
2021/10/01 12:02:42;;;;;;;7.13;1.27;;;17.50;99.90;;;;;;5127045;28;20185;-65
2021/10/01 12:05:32;;;;;;;8.48;1.83;;;17.50;99.90;;;;;;5107917;28;20178;-67
2021/10/01 12:08:02;;;;;;;8.30;1.35;;;17.50;99.90;;;;;;5126755;28;20186;-64
2021/10/01 12:10:33;;;;;;;21.50;2.75;;;17.30;99.90;;;;;;5126313;28;20198;-64
2021/10/01 12:13:11;;;;;;;27.15;3.15;;;17.30;99.90;;;;;;5126831;28;20241;-64
2021/10/01 12:15:41;;;;;;;36.63;3.58;;;17.50;99.90;;;;;;5126490;28;20181;-64
2021/10/01 12:18:25;;;;;;;10.73;1.60;;;17.80;99.90;;;;;;5126814;28;20155;-65
2021/10/01 12:20:52;;;;;;;7.75;1.63;;;17.50;99.90;;;;;;5126324;28;20162;-65
2021/10/01 12:23:27;;;;;;;3.35;1.33;;;17.30;99.90;;;;;;5108383;28;20177;-65
2021/10/01 12:25:54;;;;;;;18.75;1.83;;;17.30;99.90;;;;;;5107852;28;20166;-65
2021/10/01 12:28:21;;;;;;;12.43;1.30;;;17.20;99.90;;;;;;5126524;28;20186;-65
2021/10/01 12:31:04;;;;;;;4.15;1.27;;;17.10;99.90;;;;;;5126393;28;20545;-65
2021/10/01 12:33:30;;;;;;;16.33;2.22;;;17.00;99.90;;;;;;5126500;28;20169;-66
2021/10/01 12:35:56;;;;;;;4.75;1.40;;;17.00;99.90;;;;;;5107472;28;20173;-65
2021/10/01 12:38:23;;;;;;;5.78;1.48;;;16.80;99.90;;;;;;5126394;28;20162;-65
2021/10/01 12:41:12;;;;;;;8.20;1.40;;;16.90;99.90;;;;;;5107987;28;20188;-65
2021/10/01 12:43:55;;;;;;;5.47;1.30;;;17.10;99.90;;;;;;5126490;28;20155;-65
2021/10/01 12:46:49;;;;;;;4.43;1.30;;;17.30;99.90;;;;;;5125640;28;20237;-65
2021/10/01 12:49:29;;;;;;;7.55;1.70;;;17.60;99.90;;;;;;5125983;28;20177;-65
2021/10/01 12:51:58;;;;;;;7.35;1.60;;;17.70;99.90;;;;;;5126086;28;20252;-63
2021/10/01 12:54:29;;;;;;;7.78;1.63;;;17.80;99.90;;;;;;5107539;28;20163;-63
2021/10/01 12:57:19;;;;;;;9.52;1.73;;;17.80;99.90;;;;;;5125916;28;20623;-66
2021/10/01 12:59:53;;;;;;;8.30;1.67;;;17.90;99.90;;;;;;5126234;28;20166;-64
2021/10/01 13:02:43;;;;;;;4.93;1.70;;;18.10;99.90;;;;;;5126211;28;20168;-65
2021/10/01 13:05:11;;;;;;;3.20;1.25;;;18.10;99.90;;;;;;5127121;28;20170;-65
2021/10/01 13:08:08;;;;;;;9.90;2.22;;;17.90;99.90;;;;;;5129977;28;20197;-65
2021/10/01 13:10:47;;;;;;;5.80;1.27;;;17.70;99.90;;;;;;5129907;28;20202;-64
2021/10/01 13:13:18;;;;;;;7.28;1.40;;;17.60;99.90;;;;;;5130164;28;20147;-65
2021/10/01 13:15:47;;;;;;;8.70;1.63;;;17.40;99.90;;;;;;5129246;28;20643;-65
2021/10/01 13:18:31;;;;;;;8.25;1.77;;;17.50;99.90;;;;;;5129980;28;20176;-65
2021/10/01 13:21:02;;;;;;;10.50;1.60;;;17.50;99.90;;;;;;5129630;28;20266;-65
2021/10/01 13:23:48;;;;;;;6.25;1.33;;;17.40;99.90;;;;;;5129640;28;20654;-64
2021/10/01 13:26:18;;;;;;;11.85;1.55;;;17.20;99.90;;;;;;5129564;28;20174;-65
2021/10/01 13:28:47;;;;;;;5.25;1.40;;;17.30;99.90;;;;;;5129286;28;20174;-64
2021/10/01 13:31:15;;;;;;;7.95;1.30;;;17.20;99.90;;;;;;5129565;28;20162;-64
2021/10/01 13:33:41;;;;;;;5.78;1.42;;;17.40;99.90;;;;;;5111435;28;20624;-64
2021/10/01 13:36:07;;;;;;;9.65;1.70;;;17.30;99.90;;;;;;5128492;28;20250;-64
2021/10/01 13:38:36;;;;;;;5.22;1.20;;;17.30;99.90;;;;;;5129059;28;20159;-64
2021/10/01 13:41:04;;;;;;;8.05;1.83;;;17.00;99.90;;;;;;5128900;28;20167;-64
2021/10/01 13:43:31;;;;;;;5.47;1.67;;;16.90;99.90;;;;;;5129470;28;20163;-64
2021/10/01 13:45:57;;;;;;;4.88;1.17;;;16.80;99.90;;;;;;5125985;28;20179;-64
2021/10/01 13:48:24;;;;;;;7.18;1.25;;;16.90;99.90;;;;;;5109183;28;20187;-64
2021/10/01 13:50:51;;;;;;;7.65;1.50;;;17.00;99.90;;;;;;5108668;28;20167;-64
2021/10/01 13:53:17;;;;;;;6.55;1.30;;;17.00;99.90;;;;;;5108962;28;20181;-64
2021/10/01 13:55:43;;;;;;;6.70;1.17;;;17.10;99.90;;;;;;5108755;28;20160;-64
2021/10/01 13:58:09;;;;;;;9.75;1.50;;;17.00;99.90;;;;;;5108940;28;20198;-64
2021/10/01 14:00:35;;;;;;;5.28;1.40;;;17.10;99.90;;;;;;5108828;28;20255;-64
2021/10/01 14:03:01;;;;;;;6.07;1.23;;;17.10;99.90;;;;;;5109002;28;20198;-64
2021/10/01 14:05:26;;;;;;;6.38;1.40;;;17.10;99.90;;;;;;5108628;28;20221;-64
2021/10/01 14:07:52;;;;;;;9.32;1.50;;;17.20;99.90;;;;;;5108306;28;20195;-64
2021/10/01 14:10:21;;;;;;;4.30;1.20;;;17.30;99.90;;;;;;5108583;28;20195;-65
2021/10/01 14:12:48;;;;;;;4.00;1.30;;;17.30;99.90;;;;;;5108800;28;20234;-64
2021/10/01 14:15:16;;;;;;;11.40;1.95;;;17.30;99.90;;;;;;5108587;28;20194;-64
2021/10/01 14:17:41;;;;;;;5.88;1.45;;;17.30;99.90;;;;;;5107349;28;20664;-64
2021/10/01 14:20:08;;;;;;;5.15;1.40;;;17.40;99.90;;;;;;5108358;28;20183;-65
2021/10/01 14:22:34;;;;;;;8.40;1.45;;;17.40;99.90;;;;;;5108298;28;20254;-65
2021/10/01 14:25:00;;;;;;;6.25;1.40;;;17.50;99.90;;;;;;5108536;28;20216;-64
2021/10/01 14:27:26;;;;;;;6.47;1.80;;;17.60;99.90;;;;;;5108096;28;20202;-64
2021/10/01 14:29:52;;;;;;;5.28;1.45;;;17.60;99.90;;;;;;5108711;28;20168;-64
2021/10/01 14:32:19;;;;;;;6.65;1.52;;;17.80;99.90;;;;;;5108247;28;20217;-64
2021/10/01 14:34:45;;;;;;;4.55;1.17;;;17.90;99.90;;;;;;5089431;28;20535;-65
2021/10/01 14:37:10;;;;;;;3.58;1.15;;;17.90;99.90;;;;;;5107731;28;20171;-64
2021/10/01 14:39:36;;;;;;;6.13;1.13;;;17.90;99.90;;;;;;5107881;28;20182;-64